createdAt,value
2022-12-16T00:02:28.763Z,57.70
2022-12-16T00:07:34.590Z,68.72
2022-12-16T00:12:38.427Z,61.40
2022-12-16T00:17:42.312Z,59.97
2022-12-16T00:22:47.657Z,56.13
2022-12-16T00:27:54.878Z,49.25
2022-12-16T00:33:01.332Z,62.95
2022-12-16T00:38:06.690Z,59.08
2022-12-16T00:43:12.099Z,53.72
2022-12-16T00:48:16.490Z,56.92
2022-12-16T00:53:21.783Z,58.80
2022-12-16T00:58:25.728Z,60.28
2022-12-16T01:03:29.945Z,61.90
2022-12-16T01:08:35.436Z,49.60
2022-12-16T01:13:39.315Z,58.67
2022-12-16T01:18:43.376Z,52.35
2022-12-16T01:23:50.050Z,51.97
2022-12-16T01:28:55.114Z,45.78
2022-12-16T01:33:59.309Z,48.75
2022-12-16T01:39:05.425Z,46.42
2022-12-16T01:44:15.570Z,46.13
2022-12-16T01:49:25.333Z,44.35
2022-12-16T01:54:37.044Z,36.22
2022-12-16T01:59:43.913Z,40.75
2022-12-16T02:05:01.682Z,42.78
2022-12-16T02:10:08.183Z,43.88
2022-12-16T02:15:28.884Z,40.45
2022-12-16T02:21:03.679Z,42.63
2022-12-16T02:26:33.731Z,43.67
2022-12-16T02:31:47.151Z,37.47
2022-12-16T02:37:05.131Z,40.17
2022-12-16T02:42:17.798Z,36.97
2022-12-16T02:47:23.096Z,30.65
2022-12-16T02:52:29.060Z,39.95
2022-12-16T02:58:11.143Z,32.28
2022-12-16T03:03:25.464Z,35.05
2022-12-16T03:08:34.120Z,34.33
2022-12-16T03:13:42.416Z,31.98
2022-12-16T03:18:52.572Z,39.20
2022-12-16T03:24:02.147Z,33.67
2022-12-16T03:29:10.973Z,33.05
2022-12-16T03:34:21.219Z,28.25
2022-12-16T03:39:27.228Z,23.85
2022-12-16T03:44:32.303Z,26.48
2022-12-16T03:49:38.297Z,24.92
2022-12-16T03:54:42.227Z,25.30
2022-12-16T03:59:46.224Z,22.02
2022-12-16T04:04:51.603Z,24.05
2022-12-16T04:09:55.435Z,18.35
2022-12-16T04:15:17.020Z,20.08
2022-12-16T04:20:46.708Z,17.23
2022-12-16T04:25:51.529Z,21.45
2022-12-16T04:30:55.795Z,21.77
2022-12-16T04:36:18.815Z,16.60
2022-12-16T04:41:40.153Z,24.92
2022-12-16T04:47:02.026Z,19.38
2022-12-16T04:52:24.721Z,19.45
2022-12-16T04:57:51.277Z,19.63
2022-12-16T05:03:12.537Z,21.23
2022-12-16T05:08:35.617Z,21.70
2022-12-16T05:13:57.064Z,23.05
2022-12-16T05:19:18.343Z,20.13
2022-12-16T05:24:41.404Z,18.83
2022-12-16T05:30:02.895Z,18.27
2022-12-16T05:35:25.102Z,20.73
2022-12-16T05:40:47.808Z,20.95
2022-12-16T05:46:09.295Z,21.75
2022-12-16T05:51:30.820Z,23.02
2022-12-16T05:56:53.672Z,20.17
2022-12-16T06:02:15.404Z,21.33
2022-12-16T06:07:36.900Z,21.27
2022-12-16T06:12:59.568Z,17.95
2022-12-16T06:18:20.779Z,22.30
2022-12-16T06:23:42.089Z,21.90
2022-12-16T06:29:04.606Z,22.77
2022-12-16T06:34:25.583Z,23.45
2022-12-16T06:39:51.416Z,26.05
2022-12-16T06:45:15.521Z,25.67
2022-12-16T06:50:39.440Z,30.23
2022-12-16T07:01:25.293Z,32.05
2022-12-16T07:06:47.066Z,37.45
2022-12-16T07:12:08.147Z,36.65
2022-12-16T07:17:30.891Z,37.08
2022-12-16T07:22:59.974Z,35.25
2022-12-16T07:28:26.565Z,38.72
2022-12-16T07:33:49.830Z,36.13
2022-12-16T07:39:20.307Z,35.75
2022-12-16T07:44:41.558Z,37.05
2022-12-16T07:50:04.570Z,33.72
2022-12-16T07:55:26.988Z,34.78
2022-12-16T08:00:48.181Z,34.55
2022-12-16T08:06:10.973Z,31.58
2022-12-16T08:11:32.639Z,43.30
2022-12-16T08:16:53.927Z,37.55
2022-12-16T08:22:19.286Z,31.52
2022-12-16T08:27:40.693Z,34.80
2022-12-16T08:33:10.718Z,36.53
2022-12-16T08:38:37.855Z,31.80
2022-12-16T08:43:59.692Z,29.88
2022-12-16T08:49:21.750Z,28.75
2022-12-16T08:54:44.368Z,29.65
2022-12-16T09:00:06.163Z,23.17
2022-12-16T09:05:28.034Z,27.88
2022-12-16T09:10:50.614Z,23.98
2022-12-16T09:16:17.590Z,24.13
2022-12-16T09:21:40.630Z,26.05
2022-12-16T09:27:03.438Z,30.02
2022-12-16T09:32:39.770Z,35.30
2022-12-16T09:38:04.983Z,37.47
2022-12-16T09:43:45.625Z,33.83
2022-12-16T09:49:14.897Z,28.55
2022-12-16T09:54:38.766Z,23.38
2022-12-16T10:00:12.591Z,24.63
2022-12-16T10:05:41.682Z,22.52
2022-12-16T10:11:13.365Z,26.52
2022-12-16T10:16:45.548Z,26.83
2022-12-16T10:22:14.884Z,30.55
2022-12-16T10:27:42.010Z,31.15
2022-12-16T10:33:06.989Z,22.15
2022-12-16T10:38:39.567Z,23.98
2022-12-16T10:44:06.530Z,34.17
2022-12-16T10:49:33.628Z,34.25
2022-12-16T10:55:01.334Z,32.30
2022-12-16T11:00:31.366Z,37.63
2022-12-16T11:05:54.322Z,60.03
2022-12-16T11:11:31.163Z,37.75
2022-12-16T11:17:07.452Z,33.70
2022-12-16T11:22:45.349Z,34.67
2022-12-16T11:28:07.149Z,25.27
2022-12-16T11:33:42.518Z,30.88
2022-12-16T11:39:08.076Z,30.15
2022-12-16T11:44:37.455Z,45.50
2022-12-16T11:49:59.150Z,22.00
2022-12-16T11:56:03.724Z,25.63
2022-12-16T12:01:21.710Z,28.35
2022-12-16T12:06:51.240Z,26.00
2022-12-16T12:12:33.256Z,31.08
2022-12-16T12:18:03.242Z,29.13
2022-12-16T12:23:26.701Z,36.20
2022-12-16T12:29:05.753Z,28.25
2022-12-16T12:34:37.646Z,29.20
2022-12-16T12:40:10.510Z,30.77
2022-12-16T12:46:02.803Z,33.92
2022-12-16T12:51:30.718Z,34.03
2022-12-16T12:57:06.089Z,36.70
2022-12-16T13:02:34.684Z,38.53
2022-12-16T13:07:56.238Z,43.30
2022-12-16T13:13:47.482Z,48.88
2022-12-16T13:19:53.717Z,49.60
2022-12-16T13:25:29.351Z,50.15
2022-12-16T13:30:52.693Z,45.47
2022-12-16T13:36:18.682Z,46.55
2022-12-16T13:42:16.362Z,53.45
2022-12-16T13:47:51.200Z,52.00
2022-12-16T13:53:18.938Z,68.38
2022-12-16T13:58:53.902Z,59.50
2022-12-16T14:04:19.036Z,93.72
2022-12-16T14:09:51.098Z,90.05
2022-12-16T14:15:19.818Z,105.28
2022-12-16T14:20:48.616Z,97.35
2022-12-16T14:26:16.182Z,127.82
2022-12-16T14:31:41.503Z,124.25
2022-12-16T14:37:04.171Z,112.43
2022-12-16T14:42:38.306Z,120.28
2022-12-16T14:48:00.104Z,74.30
2022-12-16T14:53:37.703Z,78.95
2022-12-16T14:59:00.900Z,84.35
2022-12-16T15:04:27.635Z,106.00
2022-12-16T15:09:53.299Z,82.88
2022-12-16T15:15:20.073Z,60.15
2022-12-16T15:20:45.280Z,60.05
2022-12-16T15:26:14.619Z,66.00
2022-12-16T15:31:44.241Z,83.72
2022-12-16T15:37:03.391Z,62.63
2022-12-16T15:42:36.792Z,69.53
2022-12-16T15:47:59.453Z,54.67
2022-12-16T15:53:35.058Z,63.45
2022-12-16T15:58:56.929Z,54.20
2022-12-16T16:04:20.203Z,56.47
2022-12-16T16:09:46.036Z,51.20
2022-12-16T16:15:07.569Z,45.83
2022-12-16T16:20:33.878Z,47.13
2022-12-16T16:26:00.526Z,56.35
2022-12-16T16:31:28.498Z,45.45
2022-12-16T16:36:51.828Z,46.10
2022-12-16T16:42:14.194Z,56.55
2022-12-16T16:47:36.751Z,42.97
2022-12-16T16:52:59.380Z,41.33
2022-12-16T16:58:25.277Z,44.58
2022-12-16T17:03:58.614Z,64.30
2022-12-16T17:09:22.006Z,83.78
2022-12-16T17:14:43.762Z,42.47
2022-12-16T17:20:05.648Z,37.63
2022-12-16T17:25:29.125Z,41.67
2022-12-16T17:30:50.692Z,35.78
2022-12-16T17:36:13.059Z,51.10
2022-12-16T17:41:35.837Z,44.55
2022-12-16T17:46:57.744Z,39.95
2022-12-16T17:52:19.760Z,47.30
2022-12-16T17:57:42.705Z,52.72
2022-12-16T18:03:04.640Z,59.63
2022-12-16T18:08:26.995Z,47.25
2022-12-16T18:13:49.933Z,44.22
2022-12-16T18:19:11.986Z,47.40
2022-12-16T18:24:33.885Z,44.30
2022-12-16T18:29:58.845Z,45.92
2022-12-16T18:35:21.120Z,44.50
2022-12-16T18:40:42.911Z,51.22
2022-12-16T18:46:11.355Z,56.00
2022-12-16T18:51:33.078Z,67.72
2022-12-16T18:56:54.949Z,55.75
2022-12-16T19:02:17.999Z,48.40
2022-12-16T19:07:39.912Z,53.67
2022-12-16T19:13:01.085Z,52.10
2022-12-16T19:18:23.812Z,51.08
2022-12-16T19:23:45.708Z,43.10
2022-12-16T19:29:07.450Z,47.83
2022-12-16T19:34:30.912Z,48.53
2022-12-16T19:39:53.842Z,44.03
2022-12-16T19:45:15.388Z,53.50
2022-12-16T19:50:46.908Z,44.40
2022-12-16T19:56:13.799Z,44.22
2022-12-16T20:01:35.496Z,30.60
2022-12-16T20:06:58.277Z,37.35
2022-12-16T20:12:19.634Z,38.20
2022-12-16T20:17:41.331Z,42.90
2022-12-16T20:23:07.356Z,36.75
2022-12-16T20:28:36.211Z,37.45
2022-12-16T20:34:05.159Z,35.85
2022-12-16T20:39:29.696Z,42.38
2022-12-16T20:44:51.551Z,45.60
2022-12-16T20:50:13.636Z,35.92
2022-12-16T20:55:50.661Z,45.13
2022-12-16T21:01:20.873Z,47.95
2022-12-16T21:06:42.768Z,45.10
2022-12-16T21:12:05.685Z,40.28
2022-12-16T21:17:27.310Z,53.63
2022-12-16T21:22:49.004Z,42.00
2022-12-16T21:28:15.349Z,40.30
2022-12-16T21:33:38.712Z,79.72
2022-12-16T21:39:00.590Z,46.85
2022-12-16T21:44:28.027Z,51.08
2022-12-16T21:49:56.090Z,39.97
2022-12-16T21:55:28.623Z,53.35
2022-12-16T22:01:13.023Z,46.72
2022-12-16T22:06:49.325Z,54.43
2022-12-16T22:12:11.317Z,51.92
2022-12-16T22:17:34.221Z,58.17
2022-12-16T22:22:56.249Z,60.72
2022-12-16T22:28:19.223Z,54.60
2022-12-16T22:33:42.295Z,58.67
2022-12-16T22:39:04.137Z,52.50
2022-12-16T22:44:26.752Z,61.75
2022-12-16T22:49:49.574Z,55.45
2022-12-16T22:55:11.353Z,53.10
2022-12-16T23:00:34.177Z,54.42
2022-12-16T23:05:57.003Z,63.58
2022-12-16T23:11:18.717Z,63.83
2022-12-16T23:16:40.293Z,67.10
2022-12-16T23:22:03.294Z,69.82
2022-12-16T23:27:25.014Z,73.10
2022-12-16T23:32:49.739Z,64.60
2022-12-16T23:38:18.549Z,60.05
2022-12-16T23:43:40.599Z,71.68
2022-12-16T23:49:02.530Z,56.80
2022-12-16T23:54:25.330Z,60.92
2022-12-16T23:59:46.905Z,51.85
